sensor_id;sensor_type;location;lat;lon;timestamp;P1;durP1;ratioP1;P2;durP2;ratioP2
73264;SDS011;61493;51.008;14.088;2023-05-20T00:00:48;29.52;;;15.02;;
73264;SDS011;61493;51.008;14.088;2023-05-20T00:03:16;30.30;;;16.45;;
73264;SDS011;61493;51.008;14.088;2023-05-20T00:05:41;24.98;;;13.73;;
73264;SDS011;61493;51.008;14.088;2023-05-20T00:08:07;29.00;;;14.98;;
73264;SDS011;61493;51.008;14.088;2023-05-20T00:10:33;33.42;;;16.30;;
73264;SDS011;61493;51.008;14.088;2023-05-20T00:12:58;28.27;;;15.43;;
73264;SDS011;61493;51.008;14.088;2023-05-20T00:15:24;25.75;;;14.70;;
73264;SDS011;61493;51.008;14.088;2023-05-20T00:17:49;29.95;;;16.80;;
73264;SDS011;61493;51.008;14.088;2023-05-20T00:20:14;31.88;;;19.20;;
73264;SDS011;61493;51.008;14.088;2023-05-20T00:22:40;25.83;;;15.40;;
73264;SDS011;61493;51.008;14.088;2023-05-20T00:25:05;30.02;;;16.10;;
73264;SDS011;61493;51.008;14.088;2023-05-20T00:27:30;28.67;;;15.50;;
73264;SDS011;61493;51.008;14.088;2023-05-20T00:29:55;26.92;;;14.52;;
73264;SDS011;61493;51.008;14.088;2023-05-20T00:32:20;29.15;;;15.55;;
73264;SDS011;61493;51.008;14.088;2023-05-20T00:34:54;27.75;;;16.02;;
73264;SDS011;61493;51.008;14.088;2023-05-20T00:37:19;31.27;;;16.50;;
73264;SDS011;61493;51.008;14.088;2023-05-20T00:39:44;32.55;;;17.17;;
73264;SDS011;61493;51.008;14.088;2023-05-20T00:42:10;33.20;;;16.00;;
73264;SDS011;61493;51.008;14.088;2023-05-20T00:44:35;27.77;;;14.88;;
73264;SDS011;61493;51.008;14.088;2023-05-20T00:47:00;32.00;;;15.52;;
73264;SDS011;61493;51.008;14.088;2023-05-20T00:49:25;28.33;;;16.75;;
73264;SDS011;61493;51.008;14.088;2023-05-20T00:51:50;29.92;;;15.90;;
73264;SDS011;61493;51.008;14.088;2023-05-20T00:54:16;29.75;;;15.93;;
73264;SDS011;61493;51.008;14.088;2023-05-20T00:56:41;27.55;;;16.10;;
73264;SDS011;61493;51.008;14.088;2023-05-20T00:59:06;29.55;;;15.63;;
73264;SDS011;61493;51.008;14.088;2023-05-20T01:01:32;29.58;;;15.43;;
73264;SDS011;61493;51.008;14.088;2023-05-20T01:03:58;26.30;;;14.30;;
73264;SDS011;61493;51.008;14.088;2023-05-20T01:06:23;27.23;;;16.08;;
73264;SDS011;61493;51.008;14.088;2023-05-20T01:08:48;24.45;;;13.63;;
73264;SDS011;61493;51.008;14.088;2023-05-20T01:11:19;27.88;;;15.15;;
73264;SDS011;61493;51.008;14.088;2023-05-20T01:13:46;30.55;;;16.85;;
73264;SDS011;61493;51.008;14.088;2023-05-20T01:16:16;25.17;;;14.07;;
73264;SDS011;61493;51.008;14.088;2023-05-20T01:18:42;23.20;;;13.30;;
73264;SDS011;61493;51.008;14.088;2023-05-20T01:21:07;27.98;;;15.02;;
73264;SDS011;61493;51.008;14.088;2023-05-20T01:23:38;30.00;;;16.00;;
73264;SDS011;61493;51.008;14.088;2023-05-20T01:26:07;31.55;;;16.02;;
73264;SDS011;61493;51.008;14.088;2023-05-20T01:28:32;24.00;;;14.45;;
73264;SDS011;61493;51.008;14.088;2023-05-20T01:30:59;27.52;;;15.20;;
73264;SDS011;61493;51.008;14.088;2023-05-20T01:33:25;22.92;;;14.82;;
73264;SDS011;61493;51.008;14.088;2023-05-20T01:35:52;26.63;;;15.43;;
73264;SDS011;61493;51.008;14.088;2023-05-20T01:38:17;25.70;;;14.77;;
73264;SDS011;61493;51.008;14.088;2023-05-20T01:40:43;25.35;;;13.98;;
73264;SDS011;61493;51.008;14.088;2023-05-20T01:43:09;27.95;;;14.57;;
73264;SDS011;61493;51.008;14.088;2023-05-20T01:45:34;29.85;;;15.98;;
73264;SDS011;61493;51.008;14.088;2023-05-20T01:48:01;23.80;;;14.52;;
73264;SDS011;61493;51.008;14.088;2023-05-20T01:50:26;28.13;;;15.07;;
73264;SDS011;61493;51.008;14.088;2023-05-20T01:52:51;30.08;;;14.52;;
73264;SDS011;61493;51.008;14.088;2023-05-20T01:55:16;24.94;;;14.02;;
73264;SDS011;61493;51.008;14.088;2023-05-20T01:57:41;31.50;;;15.52;;
73264;SDS011;61493;51.008;14.088;2023-05-20T02:00:07;28.90;;;15.63;;
73264;SDS011;61493;51.008;14.088;2023-05-20T02:02:32;28.92;;;14.77;;
73264;SDS011;61493;51.008;14.088;2023-05-20T02:04:57;33.85;;;17.77;;
73264;SDS011;61493;51.008;14.088;2023-05-20T02:07:22;30.72;;;15.20;;
73264;SDS011;61493;51.008;14.088;2023-05-20T02:09:47;34.10;;;17.05;;
73264;SDS011;61493;51.008;14.088;2023-05-20T02:12:12;32.42;;;17.10;;
73264;SDS011;61493;51.008;14.088;2023-05-20T02:14:44;32.42;;;16.45;;
73264;SDS011;61493;51.008;14.088;2023-05-20T02:17:10;29.40;;;15.50;;
73264;SDS011;61493;51.008;14.088;2023-05-20T02:19:35;34.60;;;15.43;;
73264;SDS011;61493;51.008;14.088;2023-05-20T02:22:00;33.58;;;15.26;;
73264;SDS011;61493;51.008;14.088;2023-05-20T02:24:25;28.15;;;15.18;;
73264;SDS011;61493;51.008;14.088;2023-05-20T02:26:50;32.95;;;15.93;;
73264;SDS011;61493;51.008;14.088;2023-05-20T02:29:18;29.65;;;14.43;;
73264;SDS011;61493;51.008;14.088;2023-05-20T02:31:46;31.52;;;16.27;;
73264;SDS011;61493;51.008;14.088;2023-05-20T02:34:11;30.92;;;16.45;;
73264;SDS011;61493;51.008;14.088;2023-05-20T02:36:36;36.58;;;18.88;;
73264;SDS011;61493;51.008;14.088;2023-05-20T02:39:01;31.46;;;15.82;;
73264;SDS011;61493;51.008;14.088;2023-05-20T02:41:26;32.15;;;16.27;;
73264;SDS011;61493;51.008;14.088;2023-05-20T02:43:51;31.92;;;16.73;;
73264;SDS011;61493;51.008;14.088;2023-05-20T02:46:16;35.30;;;17.52;;
73264;SDS011;61493;51.008;14.088;2023-05-20T02:48:43;35.17;;;17.60;;
73264;SDS011;61493;51.008;14.088;2023-05-20T02:51:09;34.40;;;17.45;;
73264;SDS011;61493;51.008;14.088;2023-05-20T02:53:34;34.88;;;17.08;;
73264;SDS011;61493;51.008;14.088;2023-05-20T02:55:59;34.88;;;18.38;;
73264;SDS011;61493;51.008;14.088;2023-05-20T02:58:25;36.97;;;18.38;;
73264;SDS011;61493;51.008;14.088;2023-05-20T03:00:51;35.50;;;17.27;;
73264;SDS011;61493;51.008;14.088;2023-05-20T03:03:17;32.40;;;17.58;;
73264;SDS011;61493;51.008;14.088;2023-05-20T03:05:42;39.00;;;18.65;;
73264;SDS011;61493;51.008;14.088;2023-05-20T03:08:09;34.17;;;17.90;;
73264;SDS011;61493;51.008;14.088;2023-05-20T03:10:36;33.90;;;18.95;;
73264;SDS011;61493;51.008;14.088;2023-05-20T03:13:01;32.75;;;16.33;;
73264;SDS011;61493;51.008;14.088;2023-05-20T03:15:26;35.65;;;17.95;;
73264;SDS011;61493;51.008;14.088;2023-05-20T03:17:51;33.75;;;17.75;;
73264;SDS011;61493;51.008;14.088;2023-05-20T03:20:17;33.05;;;17.33;;
73264;SDS011;61493;51.008;14.088;2023-05-20T03:22:42;34.15;;;16.52;;
73264;SDS011;61493;51.008;14.088;2023-05-20T03:25:07;27.23;;;15.50;;
73264;SDS011;61493;51.008;14.088;2023-05-20T03:27:33;33.45;;;17.23;;
73264;SDS011;61493;51.008;14.088;2023-05-20T03:30:01;32.45;;;15.60;;
73264;SDS011;61493;51.008;14.088;2023-05-20T03:32:26;35.63;;;17.05;;
73264;SDS011;61493;51.008;14.088;2023-05-20T03:34:51;30.40;;;15.73;;
73264;SDS011;61493;51.008;14.088;2023-05-20T03:37:21;34.75;;;15.73;;
73264;SDS011;61493;51.008;14.088;2023-05-20T03:39:46;31.35;;;16.77;;
73264;SDS011;61493;51.008;14.088;2023-05-20T03:42:11;32.30;;;16.77;;
73264;SDS011;61493;51.008;14.088;2023-05-20T03:44:37;34.72;;;19.15;;
73264;SDS011;61493;51.008;14.088;2023-05-20T03:47:02;26.52;;;16.52;;
73264;SDS011;61493;51.008;14.088;2023-05-20T03:49:27;31.92;;;16.98;;
73264;SDS011;61493;51.008;14.088;2023-05-20T03:51:52;31.85;;;16.38;;
73264;SDS011;61493;51.008;14.088;2023-05-20T03:54:17;33.90;;;16.85;;
73264;SDS011;61493;51.008;14.088;2023-05-20T03:56:42;33.15;;;16.83;;
73264;SDS011;61493;51.008;14.088;2023-05-20T03:59:08;32.17;;;17.73;;
73264;SDS011;61493;51.008;14.088;2023-05-20T04:01:34;34.17;;;17.15;;
73264;SDS011;61493;51.008;14.088;2023-05-20T04:03:59;34.45;;;16.67;;
73264;SDS011;61493;51.008;14.088;2023-05-20T04:06:24;33.70;;;17.10;;
73264;SDS011;61493;51.008;14.088;2023-05-20T04:08:50;38.88;;;17.48;;
73264;SDS011;61493;51.008;14.088;2023-05-20T04:11:16;34.03;;;16.30;;
73264;SDS011;61493;51.008;14.088;2023-05-20T04:13:41;30.92;;;15.80;;
73264;SDS011;61493;51.008;14.088;2023-05-20T04:16:07;32.97;;;17.15;;
73264;SDS011;61493;51.008;14.088;2023-05-20T04:18:32;31.00;;;15.60;;
73264;SDS011;61493;51.008;14.088;2023-05-20T04:20:57;32.47;;;16.15;;
73264;SDS011;61493;51.008;14.088;2023-05-20T04:23:24;30.77;;;17.88;;
73264;SDS011;61493;51.008;14.088;2023-05-20T04:25:49;35.00;;;17.70;;
73264;SDS011;61493;51.008;14.088;2023-05-20T04:28:14;30.08;;;16.23;;
73264;SDS011;61493;51.008;14.088;2023-05-20T04:30:40;31.58;;;16.70;;
73264;SDS011;61493;51.008;14.088;2023-05-20T04:33:06;34.63;;;17.33;;
73264;SDS011;61493;51.008;14.088;2023-05-20T04:35:31;31.83;;;16.83;;
73264;SDS011;61493;51.008;14.088;2023-05-20T04:37:58;33.65;;;15.05;;
73264;SDS011;61493;51.008;14.088;2023-05-20T04:40:24;25.58;;;15.75;;
73264;SDS011;61493;51.008;14.088;2023-05-20T04:42:51;27.60;;;15.13;;
73264;SDS011;61493;51.008;14.088;2023-05-20T04:45:16;28.83;;;17.05;;
73264;SDS011;61493;51.008;14.088;2023-05-20T04:47:42;32.88;;;16.23;;
73264;SDS011;61493;51.008;14.088;2023-05-20T04:50:08;29.58;;;16.00;;
73264;SDS011;61493;51.008;14.088;2023-05-20T04:52:37;33.50;;;16.67;;
73264;SDS011;61493;51.008;14.088;2023-05-20T04:55:11;33.53;;;16.52;;
73264;SDS011;61493;51.008;14.088;2023-05-20T04:57:37;32.42;;;16.63;;
73264;SDS011;61493;51.008;14.088;2023-05-20T05:00:06;37.63;;;17.63;;
73264;SDS011;61493;51.008;14.088;2023-05-20T05:02:31;32.40;;;16.17;;
73264;SDS011;61493;51.008;14.088;2023-05-20T05:04:57;35.42;;;18.17;;
73264;SDS011;61493;51.008;14.088;2023-05-20T05:07:22;31.67;;;16.75;;
73264;SDS011;61493;51.008;14.088;2023-05-20T05:09:47;31.85;;;16.70;;
73264;SDS011;61493;51.008;14.088;2023-05-20T05:12:12;28.90;;;16.88;;
73264;SDS011;61493;51.008;14.088;2023-05-20T05:14:37;35.20;;;17.98;;
73264;SDS011;61493;51.008;14.088;2023-05-20T05:17:03;30.17;;;18.00;;
73264;SDS011;61493;51.008;14.088;2023-05-20T05:19:28;32.08;;;17.15;;
73264;SDS011;61493;51.008;14.088;2023-05-20T05:21:53;34.15;;;18.58;;
73264;SDS011;61493;51.008;14.088;2023-05-20T05:24:18;31.85;;;17.10;;
73264;SDS011;61493;51.008;14.088;2023-05-20T05:26:43;29.52;;;17.73;;
73264;SDS011;61493;51.008;14.088;2023-05-20T05:29:09;27.80;;;15.35;;
73264;SDS011;61493;51.008;14.088;2023-05-20T05:31:34;34.80;;;16.90;;
73264;SDS011;61493;51.008;14.088;2023-05-20T05:33:59;29.15;;;16.25;;
73264;SDS011;61493;51.008;14.088;2023-05-20T05:36:25;27.90;;;16.45;;
73264;SDS011;61493;51.008;14.088;2023-05-20T05:38:50;30.08;;;16.33;;
73264;SDS011;61493;51.008;14.088;2023-05-20T05:41:15;30.38;;;16.45;;
73264;SDS011;61493;51.008;14.088;2023-05-20T05:43:40;30.02;;;16.77;;
73264;SDS011;61493;51.008;14.088;2023-05-20T05:46:06;28.63;;;16.40;;
73264;SDS011;61493;51.008;14.088;2023-05-20T05:48:31;31.27;;;15.75;;
73264;SDS011;61493;51.008;14.088;2023-05-20T05:50:56;29.58;;;16.02;;
73264;SDS011;61493;51.008;14.088;2023-05-20T05:53:21;25.38;;;14.98;;
73264;SDS011;61493;51.008;14.088;2023-05-20T05:55:46;24.40;;;14.77;;
73264;SDS011;61493;51.008;14.088;2023-05-20T05:58:12;29.38;;;16.38;;
73264;SDS011;61493;51.008;14.088;2023-05-20T06:00:37;30.23;;;16.98;;
73264;SDS011;61493;51.008;14.088;2023-05-20T06:03:02;27.83;;;15.70;;
73264;SDS011;61493;51.008;14.088;2023-05-20T06:05:27;27.35;;;14.52;;
73264;SDS011;61493;51.008;14.088;2023-05-20T06:07:52;26.95;;;15.55;;
73264;SDS011;61493;51.008;14.088;2023-05-20T06:10:18;27.73;;;16.73;;
73264;SDS011;61493;51.008;14.088;2023-05-20T06:12:43;23.75;;;14.30;;
73264;SDS011;61493;51.008;14.088;2023-05-20T06:15:08;27.60;;;14.35;;
73264;SDS011;61493;51.008;14.088;2023-05-20T06:17:33;23.48;;;13.77;;
73264;SDS011;61493;51.008;14.088;2023-05-20T06:19:58;22.88;;;14.15;;
73264;SDS011;61493;51.008;14.088;2023-05-20T06:22:24;22.27;;;12.20;;
73264;SDS011;61493;51.008;14.088;2023-05-20T06:24:49;22.07;;;12.47;;
73264;SDS011;61493;51.008;14.088;2023-05-20T06:27:14;22.88;;;14.00;;
73264;SDS011;61493;51.008;14.088;2023-05-20T06:29:39;24.10;;;11.95;;
73264;SDS011;61493;51.008;14.088;2023-05-20T06:32:05;23.17;;;12.43;;
73264;SDS011;61493;51.008;14.088;2023-05-20T06:34:30;18.15;;;11.35;;
73264;SDS011;61493;51.008;14.088;2023-05-20T06:36:55;18.97;;;12.30;;
73264;SDS011;61493;51.008;14.088;2023-05-20T06:39:20;18.37;;;12.47;;
73264;SDS011;61493;51.008;14.088;2023-05-20T06:41:45;15.87;;;10.50;;
73264;SDS011;61493;51.008;14.088;2023-05-20T06:44:11;18.35;;;11.43;;
73264;SDS011;61493;51.008;14.088;2023-05-20T06:46:36;15.23;;;10.33;;
73264;SDS011;61493;51.008;14.088;2023-05-20T06:49:01;16.90;;;11.20;;
73264;SDS011;61493;51.008;14.088;2023-05-20T06:51:27;14.43;;;10.90;;
73264;SDS011;61493;51.008;14.088;2023-05-20T06:53:52;16.50;;;12.63;;
73264;SDS011;61493;51.008;14.088;2023-05-20T06:56:17;15.77;;;11.63;;
73264;SDS011;61493;51.008;14.088;2023-05-20T06:58:43;14.83;;;10.50;;
73264;SDS011;61493;51.008;14.088;2023-05-20T07:01:08;15.33;;;10.27;;
73264;SDS011;61493;51.008;14.088;2023-05-20T07:03:33;16.43;;;11.47;;
73264;SDS011;61493;51.008;14.088;2023-05-20T07:05:58;16.93;;;11.40;;
73264;SDS011;61493;51.008;14.088;2023-05-20T07:08:23;16.00;;;11.63;;
73264;SDS011;61493;51.008;14.088;2023-05-20T07:10:48;14.23;;;10.77;;
73264;SDS011;61493;51.008;14.088;2023-05-20T07:13:14;15.13;;;11.85;;
73264;SDS011;61493;51.008;14.088;2023-05-20T07:15:39;15.90;;;11.18;;
73264;SDS011;61493;51.008;14.088;2023-05-20T07:18:04;17.60;;;11.63;;
73264;SDS011;61493;51.008;14.088;2023-05-20T07:20:29;14.32;;;10.50;;
73264;SDS011;61493;51.008;14.088;2023-05-20T07:22:54;13.73;;;10.00;;
73264;SDS011;61493;51.008;14.088;2023-05-20T07:25:20;15.90;;;11.15;;
73264;SDS011;61493;51.008;14.088;2023-05-20T07:27:45;12.93;;;10.33;;
73264;SDS011;61493;51.008;14.088;2023-05-20T07:30:10;17.42;;;11.48;;
73264;SDS011;61493;51.008;14.088;2023-05-20T07:32:35;16.60;;;11.30;;
73264;SDS011;61493;51.008;14.088;2023-05-20T07:35:01;14.63;;;10.27;;
73264;SDS011;61493;51.008;14.088;2023-05-20T07:37:26;16.02;;;10.75;;
73264;SDS011;61493;51.008;14.088;2023-05-20T07:39:51;15.13;;;10.70;;
73264;SDS011;61493;51.008;14.088;2023-05-20T07:42:16;13.40;;;9.73;;
73264;SDS011;61493;51.008;14.088;2023-05-20T07:44:41;15.23;;;10.80;;
73264;SDS011;61493;51.008;14.088;2023-05-20T07:47:07;13.95;;;9.82;;
73264;SDS011;61493;51.008;14.088;2023-05-20T07:49:33;14.27;;;10.77;;
73264;SDS011;61493;51.008;14.088;2023-05-20T07:51:58;11.73;;;9.00;;
73264;SDS011;61493;51.008;14.088;2023-05-20T07:54:23;15.77;;;9.57;;
73264;SDS011;61493;51.008;14.088;2023-05-20T07:56:48;12.77;;;9.93;;
73264;SDS011;61493;51.008;14.088;2023-05-20T07:59:13;12.90;;;9.93;;
73264;SDS011;61493;51.008;14.088;2023-05-20T08:01:40;13.43;;;10.50;;
73264;SDS011;61493;51.008;14.088;2023-05-20T08:04:05;13.55;;;9.50;;
73264;SDS011;61493;51.008;14.088;2023-05-20T08:06:30;13.07;;;9.90;;
73264;SDS011;61493;51.008;14.088;2023-05-20T08:08:56;14.15;;;9.57;;
73264;SDS011;61493;51.008;14.088;2023-05-20T08:11:21;25.15;;;13.52;;
73264;SDS011;61493;51.008;14.088;2023-05-20T08:13:47;14.43;;;9.50;;
73264;SDS011;61493;51.008;14.088;2023-05-20T08:16:12;14.30;;;11.02;;
73264;SDS011;61493;51.008;14.088;2023-05-20T08:18:37;13.30;;;9.90;;
73264;SDS011;61493;51.008;14.088;2023-05-20T08:21:03;41.53;;;17.90;;
73264;SDS011;61493;51.008;14.088;2023-05-20T08:23:29;14.15;;;10.20;;
73264;SDS011;61493;51.008;14.088;2023-05-20T08:25:54;14.10;;;10.50;;
73264;SDS011;61493;51.008;14.088;2023-05-20T08:28:21;15.05;;;10.90;;
73264;SDS011;61493;51.008;14.088;2023-05-20T08:30:46;11.02;;;9.23;;
73264;SDS011;61493;51.008;14.088;2023-05-20T08:33:12;11.77;;;9.20;;
73264;SDS011;61493;51.008;14.088;2023-05-20T08:35:37;11.90;;;9.27;;
73264;SDS011;61493;51.008;14.088;2023-05-20T08:38:04;13.27;;;8.68;;
73264;SDS011;61493;51.008;14.088;2023-05-20T08:40:30;11.88;;;8.68;;
73264;SDS011;61493;51.008;14.088;2023-05-20T08:42:58;10.70;;;8.00;;
73264;SDS011;61493;51.008;14.088;2023-05-20T08:48:36;14.52;;;9.40;;
73264;SDS011;61493;51.008;14.088;2023-05-20T08:51:08;12.63;;;9.10;;
73264;SDS011;61493;51.008;14.088;2023-05-20T08:53:34;11.68;;;9.52;;
73264;SDS011;61493;51.008;14.088;2023-05-20T08:55:59;11.53;;;8.47;;
73264;SDS011;61493;51.008;14.088;2023-05-20T08:58:29;13.30;;;10.43;;
73264;SDS011;61493;51.008;14.088;2023-05-20T09:00:55;11.00;;;9.70;;
73264;SDS011;61493;51.008;14.088;2023-05-20T09:03:20;12.25;;;9.48;;
73264;SDS011;61493;51.008;14.088;2023-05-20T09:05:46;11.35;;;8.63;;
73264;SDS011;61493;51.008;14.088;2023-05-20T09:08:12;11.65;;;8.82;;
73264;SDS011;61493;51.008;14.088;2023-05-20T09:10:38;11.95;;;9.55;;
73264;SDS011;61493;51.008;14.088;2023-05-20T09:13:04;10.65;;;8.20;;
73264;SDS011;61493;51.008;14.088;2023-05-20T09:15:30;10.80;;;7.75;;
73264;SDS011;61493;51.008;14.088;2023-05-20T09:17:55;11.57;;;9.05;;
73264;SDS011;61493;51.008;14.088;2023-05-20T09:20:23;10.63;;;7.78;;
73264;SDS011;61493;51.008;14.088;2023-05-20T09:22:52;12.48;;;9.35;;
73264;SDS011;61493;51.008;14.088;2023-05-20T09:25:18;13.10;;;9.38;;
73264;SDS011;61493;51.008;14.088;2023-05-20T09:27:44;11.57;;;8.80;;
73264;SDS011;61493;51.008;14.088;2023-05-20T09:30:09;11.50;;;8.25;;
73264;SDS011;61493;51.008;14.088;2023-05-20T09:32:36;12.20;;;9.45;;
73264;SDS011;61493;51.008;14.088;2023-05-20T09:35:02;11.45;;;9.18;;
73264;SDS011;61493;51.008;14.088;2023-05-20T09:37:30;11.25;;;9.43;;
73264;SDS011;61493;51.008;14.088;2023-05-20T09:40:04;12.70;;;9.47;;
73264;SDS011;61493;51.008;14.088;2023-05-20T09:44:58;10.93;;;8.55;;
73264;SDS011;61493;51.008;14.088;2023-05-20T09:47:23;12.32;;;9.98;;
73264;SDS011;61493;51.008;14.088;2023-05-20T09:49:51;10.73;;;9.10;;
73264;SDS011;61493;51.008;14.088;2023-05-20T09:52:16;11.90;;;8.55;;
73264;SDS011;61493;51.008;14.088;2023-05-20T09:54:42;11.23;;;8.98;;
73264;SDS011;61493;51.008;14.088;2023-05-20T09:57:08;11.13;;;9.02;;
73264;SDS011;61493;51.008;14.088;2023-05-20T09:59:33;11.57;;;9.20;;
73264;SDS011;61493;51.008;14.088;2023-05-20T10:02:00;18.15;;;10.30;;
73264;SDS011;61493;51.008;14.088;2023-05-20T10:04:26;15.43;;;9.50;;
73264;SDS011;61493;51.008;14.088;2023-05-20T10:09:36;13.50;;;10.23;;
73264;SDS011;61493;51.008;14.088;2023-05-20T10:12:14;11.93;;;9.60;;
73264;SDS011;61493;51.008;14.088;2023-05-20T10:20:21;12.25;;;9.30;;
73264;SDS011;61493;51.008;14.088;2023-05-20T10:22:54;13.20;;;9.43;;
73264;SDS011;61493;51.008;14.088;2023-05-20T10:28:07;14.32;;;10.57;;
73264;SDS011;61493;51.008;14.088;2023-05-20T10:30:51;15.20;;;10.70;;
73264;SDS011;61493;51.008;14.088;2023-05-20T10:33:16;11.60;;;9.57;;
73264;SDS011;61493;51.008;14.088;2023-05-20T10:35:46;16.20;;;11.20;;
73264;SDS011;61493;51.008;14.088;2023-05-20T10:38:11;10.13;;;8.55;;
73264;SDS011;61493;51.008;14.088;2023-05-20T10:40:37;11.32;;;8.60;;
73264;SDS011;61493;51.008;14.088;2023-05-20T10:45:34;12.17;;;8.37;;
73264;SDS011;61493;51.008;14.088;2023-05-20T10:48:01;11.90;;;8.77;;
73264;SDS011;61493;51.008;14.088;2023-05-20T10:50:27;13.67;;;9.40;;
73264;SDS011;61493;51.008;14.088;2023-05-20T10:52:53;11.45;;;9.55;;
73264;SDS011;61493;51.008;14.088;2023-05-20T10:55:18;10.93;;;8.95;;
73264;SDS011;61493;51.008;14.088;2023-05-20T10:57:44;13.53;;;9.30;;
73264;SDS011;61493;51.008;14.088;2023-05-20T11:00:10;9.73;;;8.70;;
73264;SDS011;61493;51.008;14.088;2023-05-20T11:02:35;11.93;;;8.73;;
73264;SDS011;61493;51.008;14.088;2023-05-20T11:05:00;10.77;;;8.33;;
73264;SDS011;61493;51.008;14.088;2023-05-20T11:07:29;11.00;;;7.32;;
73264;SDS011;61493;51.008;14.088;2023-05-20T11:09:56;11.48;;;8.35;;
73264;SDS011;61493;51.008;14.088;2023-05-20T11:12:22;12.07;;;8.77;;
73264;SDS011;61493;51.008;14.088;2023-05-20T11:14:48;12.48;;;8.73;;
73264;SDS011;61493;51.008;14.088;2023-05-20T11:17:14;14.05;;;8.43;;
73264;SDS011;61493;51.008;14.088;2023-05-20T11:19:40;12.20;;;8.60;;
73264;SDS011;61493;51.008;14.088;2023-05-20T11:22:06;13.73;;;9.30;;
73264;SDS011;61493;51.008;14.088;2023-05-20T11:24:31;10.73;;;8.30;;
73264;SDS011;61493;51.008;14.088;2023-05-20T11:26:58;12.33;;;8.93;;
73264;SDS011;61493;51.008;14.088;2023-05-20T11:29:24;13.60;;;9.80;;
73264;SDS011;61493;51.008;14.088;2023-05-20T11:31:50;11.43;;;8.85;;
73264;SDS011;61493;51.008;14.088;2023-05-20T11:34:18;12.25;;;8.10;;
73264;SDS011;61493;51.008;14.088;2023-05-20T11:36:43;12.45;;;9.07;;
73264;SDS011;61493;51.008;14.088;2023-05-20T11:39:09;12.87;;;8.93;;
73264;SDS011;61493;51.008;14.088;2023-05-20T11:41:35;12.48;;;8.80;;
73264;SDS011;61493;51.008;14.088;2023-05-20T11:44:00;10.63;;;7.57;;
73264;SDS011;61493;51.008;14.088;2023-05-20T11:46:26;11.82;;;8.52;;
73264;SDS011;61493;51.008;14.088;2023-05-20T11:48:55;12.35;;;8.15;;
73264;SDS011;61493;51.008;14.088;2023-05-20T11:51:26;11.95;;;9.02;;
73264;SDS011;61493;51.008;14.088;2023-05-20T11:53:52;11.88;;;7.57;;
73264;SDS011;61493;51.008;14.088;2023-05-20T11:56:17;12.98;;;8.90;;
73264;SDS011;61493;51.008;14.088;2023-05-20T11:58:42;12.97;;;9.63;;
73264;SDS011;61493;51.008;14.088;2023-05-20T12:01:08;12.02;;;8.73;;
73264;SDS011;61493;51.008;14.088;2023-05-20T12:03:33;11.30;;;9.23;;
73264;SDS011;61493;51.008;14.088;2023-05-20T12:06:01;12.00;;;9.23;;
73264;SDS011;61493;51.008;14.088;2023-05-20T12:08:27;11.88;;;9.05;;
73264;SDS011;61493;51.008;14.088;2023-05-20T12:10:55;12.77;;;9.52;;
73264;SDS011;61493;51.008;14.088;2023-05-20T12:13:25;12.88;;;8.95;;
73264;SDS011;61493;51.008;14.088;2023-05-20T12:15:53;12.98;;;9.77;;
73264;SDS011;61493;51.008;14.088;2023-05-20T12:18:18;11.80;;;9.37;;
73264;SDS011;61493;51.008;14.088;2023-05-20T12:20:43;14.00;;;9.88;;
73264;SDS011;61493;51.008;14.088;2023-05-20T12:23:08;12.27;;;9.73;;
73264;SDS011;61493;51.008;14.088;2023-05-20T12:25:34;10.98;;;8.68;;
73264;SDS011;61493;51.008;14.088;2023-05-20T12:28:00;13.02;;;10.27;;
73264;SDS011;61493;51.008;14.088;2023-05-20T12:30:25;13.20;;;9.40;;
73264;SDS011;61493;51.008;14.088;2023-05-20T12:32:51;13.27;;;9.83;;
73264;SDS011;61493;51.008;14.088;2023-05-20T12:35:16;13.85;;;9.68;;
73264;SDS011;61493;51.008;14.088;2023-05-20T12:37:41;14.55;;;10.40;;
73264;SDS011;61493;51.008;14.088;2023-05-20T12:40:07;16.80;;;9.73;;
73264;SDS011;61493;51.008;14.088;2023-05-20T12:42:36;13.82;;;9.23;;
73264;SDS011;61493;51.008;14.088;2023-05-20T12:45:02;12.00;;;9.07;;
73264;SDS011;61493;51.008;14.088;2023-05-20T12:47:27;13.63;;;9.57;;
73264;SDS011;61493;51.008;14.088;2023-05-20T12:49:52;12.37;;;8.80;;
73264;SDS011;61493;51.008;14.088;2023-05-20T12:52:18;16.70;;;10.30;;
73264;SDS011;61493;51.008;14.088;2023-05-20T12:54:43;15.13;;;10.00;;
73264;SDS011;61493;51.008;14.088;2023-05-20T12:57:08;14.90;;;8.95;;
73264;SDS011;61493;51.008;14.088;2023-05-20T12:59:33;12.93;;;9.90;;
73264;SDS011;61493;51.008;14.088;2023-05-20T13:01:58;15.25;;;10.32;;
73264;SDS011;61493;51.008;14.088;2023-05-20T13:04:24;16.43;;;9.60;;
73264;SDS011;61493;51.008;14.088;2023-05-20T13:06:49;15.30;;;9.63;;
73264;SDS011;61493;51.008;14.088;2023-05-20T13:09:14;13.55;;;9.57;;
73264;SDS011;61493;51.008;14.088;2023-05-20T13:11:40;13.15;;;8.45;;
73264;SDS011;61493;51.008;14.088;2023-05-20T13:14:05;12.27;;;8.20;;
73264;SDS011;61493;51.008;14.088;2023-05-20T13:16:30;14.82;;;9.23;;
73264;SDS011;61493;51.008;14.088;2023-05-20T13:18:55;15.25;;;8.95;;
73264;SDS011;61493;51.008;14.088;2023-05-20T13:21:21;12.50;;;7.72;;
73264;SDS011;61493;51.008;14.088;2023-05-20T13:23:46;12.45;;;9.13;;
73264;SDS011;61493;51.008;14.088;2023-05-20T13:26:12;13.52;;;8.95;;
73264;SDS011;61493;51.008;14.088;2023-05-20T13:28:37;14.77;;;8.80;;
73264;SDS011;61493;51.008;14.088;2023-05-20T13:31:03;12.20;;;8.63;;
73264;SDS011;61493;51.008;14.088;2023-05-20T13:33:29;16.05;;;9.68;;
73264;SDS011;61493;51.008;14.088;2023-05-20T13:35:54;13.80;;;9.77;;
73264;SDS011;61493;51.008;14.088;2023-05-20T13:38:19;14.20;;;8.95;;
73264;SDS011;61493;51.008;14.088;2023-05-20T13:40:44;15.48;;;9.77;;
73264;SDS011;61493;51.008;14.088;2023-05-20T13:43:10;14.37;;;9.27;;
73264;SDS011;61493;51.008;14.088;2023-05-20T13:45:35;15.93;;;9.43;;
73264;SDS011;61493;51.008;14.088;2023-05-20T13:48:00;13.27;;;9.50;;
73264;SDS011;61493;51.008;14.088;2023-05-20T13:50:25;14.50;;;9.13;;
73264;SDS011;61493;51.008;14.088;2023-05-20T13:52:51;15.30;;;9.95;;
73264;SDS011;61493;51.008;14.088;2023-05-20T13:55:16;14.60;;;9.80;;
73264;SDS011;61493;51.008;14.088;2023-05-20T13:57:41;14.97;;;9.27;;
73264;SDS011;61493;51.008;14.088;2023-05-20T14:00:07;12.63;;;8.33;;
73264;SDS011;61493;51.008;14.088;2023-05-20T14:02:33;17.90;;;10.88;;
73264;SDS011;61493;51.008;14.088;2023-05-20T14:04:58;13.33;;;8.73;;
73264;SDS011;61493;51.008;14.088;2023-05-20T14:07:23;13.38;;;8.88;;
73264;SDS011;61493;51.008;14.088;2023-05-20T14:09:48;14.18;;;9.85;;
73264;SDS011;61493;51.008;14.088;2023-05-20T14:12:14;15.40;;;9.33;;
73264;SDS011;61493;51.008;14.088;2023-05-20T14:14:39;15.73;;;9.05;;
73264;SDS011;61493;51.008;14.088;2023-05-20T14:17:04;14.20;;;8.57;;
73264;SDS011;61493;51.008;14.088;2023-05-20T14:19:31;13.68;;;9.98;;
73264;SDS011;61493;51.008;14.088;2023-05-20T14:21:56;12.57;;;8.63;;
73264;SDS011;61493;51.008;14.088;2023-05-20T14:24:25;13.20;;;9.20;;